Date,TemperatureHighF,TemperatureAvgF,TemperatureLowF,DewpointHighF,DewpointAvgF,DewpointLowF,HumidityHigh,HumidityAvg,HumidityLow,PressureMaxIn,PressureMinIn,WindSpeedMaxMPH,WindSpeedAvgMPH,GustSpeedMaxMPH,PrecipitationSumIn
2013-1-1,60.4,55.5,50.1,58.0,53.0,48.0,95,91,87,30.19,29.95,9,4,11,0.00
2013-1-2,61.1,57.9,53.9,60.0,55.4,51.0,96,91,87,30.11,29.90,12,4,17,0.00
2013-1-3,53.7,51.4,48.4,52.0,50.0,47.0,97,94,90,30.25,30.07,5,1,10,0.06
2013-1-4,55.0,46.3,39.2,47.0,41.2,37.0,96,84,54,30.34,30.23,7,2,13,0.08
2013-1-5,55.1,46.0,36.7,43.0,38.8,34.0,95,78,46,30.40,30.28,6,1,9,0.00
2013-1-6,54.4,50.0,47.1,49.0,46.1,42.0,94,86,74,30.29,30.11,8,2,12,0.02
2013-1-7,56.5,49.4,43.8,47.0,41.1,37.0,90,74,52,30.37,30.17,13,2,15,0.02
2013-1-8,69.0,54.7,45.6,58.0,49.8,42.0,92,84,68,30.37,30.27,5,1,9,0.00
2013-1-9,72.7,62.1,56.0,64.0,58.3,53.0,96,87,75,30.37,30.28,5,1,11,0.00
2013-1-10,67.6,60.2,56.1,62.0,58.3,55.0,98,94,74,30.41,30.32,5,1,16,0.02
2013-1-11,72.5,62.2,56.1,68.0,60.5,56.0,98,94,81,30.32,30.16,9,2,13,0.01
2013-1-12,66.8,61.1,57.3,65.0,60.5,57.0,99,97,91,30.20,30.10,9,4,10,0.00
2013-1-13,66.9,61.8,56.2,64.0,61.0,56.0,99,97,90,30.18,30.08,7,3,9,0.01
2013-1-14,70.5,63.3,59.5,66.0,61.9,59.0,99,95,83,30.18,30.10,11,5,19,0.01
2013-1-15,67.6,63.5,59.5,65.0,62.4,59.0,99,96,90,30.15,30.02,10,5,14,0.00
2013-1-16,68.4,63.8,59.6,65.0,62.5,59.0,99,95,88,30.06,29.96,12,6,19,0.00
2013-1-17,67.2,59.8,46.9,64.0,57.3,42.0,97,91,79,30.05,29.75,20,9,30,0.04
2013-1-18,55.8,47.4,41.5,43.0,36.7,30.0,88,69,38,30.48,30.05,20,6,30,0.00
2013-1-19,60.5,49.6,40.7,51.0,42.8,35.0,96,78,60,30.46,30.22,9,2,13,0.00
2013-1-20,66.5,54.9,47.0,52.0,46.4,40.0,97,76,38,30.21,30.03,14,3,19,0.00
2013-1-21,63.6,52.2,43.6,49.0,40.5,-99.9,96,71,42,30.10,29.97,9,-20,15,0.00
2013-1-22,55.6,48.3,41.9,38.0,30.8,26.0,74,52,36,30.28,30.05,12,5,17,0.00
2013-1-23,53.8,46.0,36.9,43.0,31.0,24.0,73,57,40,30.37,30.19,13,6,14,0.00
2013-1-24,66.9,53.5,38.7,49.0,40.0,26.0,77,62,31,30.43,30.11,19,8,24,0.00
2013-1-25,55.7,44.2,33.2,49.0,36.7,24.0,84,75,66,30.43,30.14,8,2,15,0.00
2013-1-26,60.8,49.8,41.6,48.0,43.5,37.0,88,80,54,30.30,30.12,13,2,15,0.00
2013-1-27,53.6,46.3,41.1,45.0,41.0,36.0,92,82,71,30.48,30.30,8,2,16,0.00
2013-1-28,61.1,51.5,44.8,55.0,47.9,41.0,95,87,76,30.44,30.28,8,2,9,0.00
2013-1-29,65.9,58.4,49.4,65.0,57.1,48.0,98,95,90,30.27,30.11,11,2,17,0.00
2013-1-30,67.4,62.8,59.4,65.0,61.4,57.0,98,95,90,30.10,29.65,24,10,29,0.07
2013-1-31,58.3,51.1,47.0,55.0,37.1,28.0,93,61,35,30.19,29.75,27,10,34,0.06
2013-2-1,57.3,48.7,38.5,36.0,29.4,20.0,67,50,26,30.35,30.17,24,7,27,0.00
2013-2-2,55.7,45.2,32.8,46.0,36.3,25.0,87,72,58,30.36,30.11,9,2,11,0.00
2013-2-3,61.0,52.0,44.7,45.0,37.3,34.0,85,59,39,30.11,29.93,18,6,26,0.00
2013-2-4,54.4,47.3,37.7,43.0,38.4,32.0,87,72,46,30.15,30.03,7,1,9,0.00
2013-2-5,64.1,52.4,41.6,54.0,48.0,40.0,97,85,61,30.09,29.95,14,4,17,0.00
2013-2-6,63.7,56.4,51.9,56.0,52.9,50.0,95,88,71,30.16,30.03,10,2,14,0.00
2013-2-7,60.8,55.3,51.3,60.0,51.5,-99.9,98,94,93,30.15,29.70,7,-10,13,0.92
2013-2-8,62.2,54.9,49.4,61.0,51.3,47.0,98,87,70,30.05,29.70,17,6,23,0.92
2013-2-9,61.8,50.8,42.6,52.0,40.0,27.0,94,70,28,30.33,30.05,11,3,14,0.00
2013-2-10,65.5,54.6,42.4,58.0,50.1,41.0,96,85,69,30.38,30.18,10,2,15,0.00
2013-2-11,64.1,61.6,59.0,62.0,60.1,57.0,97,94,86,30.21,30.05,13,4,15,1.36
2013-2-12,60.5,56.6,51.4,59.0,55.3,50.0,98,95,77,30.11,29.86,14,2,16,0.67
2013-2-13,70.6,60.0,53.0,65.0,55.9,48.0,99,88,49,29.88,29.68,21,6,29,0.61
2013-2-14,53.7,50.2,46.2,50.0,44.0,40.0,93,80,62,30.08,29.86,11,2,13,0.06
2013-2-15,56.3,49.4,42.7,46.0,43.9,40.0,94,82,63,30.11,29.96,10,3,14,0.06
2013-2-16,53.3,46.0,38.5,48.0,41.6,26.0,96,85,50,30.05,29.84,24,6,28,0.03
2013-2-17,47.2,39.1,32.8,31.0,22.7,15.0,79,55,29,30.32,30.05,17,7,24,0.03
2013-2-18,50.1,42.3,32.2,40.0,30.9,22.0,90,67,34,30.43,30.26,9,1,13,0.00
2013-2-19,61.2,53.8,41.2,56.0,51.0,39.0,97,90,73,30.26,29.97,14,4,19,0.13
2013-2-20,52.8,47.9,39.6,51.0,37.7,29.0,97,70,41,30.17,30.05,11,4,13,0.13
2013-2-21,57.0,50.0,41.0,52.0,45.4,40.0,97,85,64,30.18,30.09,9,2,15,0.00
2013-2-22,63.2,55.7,50.6,62.0,50.8,-99.9,98,88,78,30.17,30.02,11,-18,22,0.54
2013-2-23,60.6,53.7,47.8,60.0,53.3,47.0,99,98,97,30.02,29.80,13,4,16,1.32
2013-2-24,64.0,55.6,50.1,58.0,52.8,49.0,98,91,68,29.99,29.76,17,5,20,0.25
2013-2-25,53.7,50.1,44.0,53.0,49.2,43.0,98,96,89,30.04,29.93,19,3,25,0.12
2013-2-26,67.2,61.0,48.8,65.0,58.9,48.0,99,93,75,29.93,29.58,28,8,31,0.17
2013-2-27,61.2,53.6,49.8,55.0,45.3,40.0,88,74,63,29.91,29.71,15,8,22,0.10
2013-2-28,59.7,53.2,48.2,45.0,39.6,34.0,81,62,39,29.90,29.79,19,7,24,0.08
2013-3-1,51.3,45.8,41.6,40.0,32.8,-99.9,73,64,56,29.97,29.86,12,-16,19,0.16
2013-3-2,48.9,44.7,39.1,38.0,35.4,33.0,84,70,54,29.94,29.84,16,7,21,0.16
2013-3-3,45.6,41.2,35.5,35.0,31.1,29.0,85,68,53,30.04,29.91,14,7,19,0.00
2013-3-4,54.2,43.8,31.8,44.0,31.0,23.0,80,62,34,30.20,30.04,14,6,18,0.00
2013-3-5,60.6,54.9,45.6,57.0,49.7,44.0,95,82,67,30.14,29.74,22,7,27,0.04
2013-3-6,58.4,47.9,42.3,56.0,34.3,26.0,92,61,44,30.08,29.72,24,13,32,0.05
2013-3-7,54.8,46.0,36.8,43.0,36.8,32.0,91,72,48,30.23,30.09,16,5,23,0.00
2013-3-8,60.0,47.9,39.9,40.0,31.5,-99.9,93,61,30,30.29,30.14,15,-7,18,0.00
2013-3-9,55.5,47.9,40.5,46.0,39.8,34.0,94,74,54,30.32,30.24,9,2,15,0.00
2013-3-10,64.3,53.6,43.3,51.0,45.3,40.0,95,76,46,30.28,30.18,8,1,13,0.00
2013-3-11,66.6,59.4,51.7,60.0,55.6,48.0,96,87,72,30.19,29.90,14,4,17,0.00
2013-3-12,67.6,61.4,58.4,63.0,58.2,48.0,97,89,66,29.94,29.79,17,6,22,0.03
2013-3-13,64.0,56.3,47.4,48.0,38.1,29.0,78,53,29,30.12,29.94,18,8,23,0.03
2013-3-14,55.2,47.3,37.6,42.0,29.4,23.0,77,52,30,30.30,30.10,13,5,19,0.00
2013-3-15,57.7,51.4,42.0,52.0,43.1,32.0,88,74,47,30.22,30.05,16,6,19,0.00
2013-3-16,71.2,60.5,54.6,56.0,51.4,45.0,87,73,48,30.05,29.88,18,9,28,0.00
2013-3-17,68.5,61.7,58.2,59.0,55.9,54.0,87,81,70,30.04,29.95,17,8,23,0.00
2013-3-18,64.5,61.4,58.8,62.0,58.6,57.0,95,90,84,30.07,29.85,20,3,31,0.14
2013-3-19,74.6,63.4,56.9,59.0,54.9,40.0,96,78,31,29.93,29.81,16,7,18,0.24
2013-3-20,61.7,55.2,47.0,43.0,35.2,23.0,85,49,25,30.08,29.83,11,2,18,0.00
2013-3-21,57.3,50.6,45.2,45.0,28.9,21.0,92,46,26,29.95,29.78,22,9,29,0.00
2013-3-22,50.8,45.7,40.2,44.0,29.7,-99.9,79,58,47,30.11,29.95,7,-22,13,0.00
2013-3-23,57.5,51.8,45.7,54.0,48.7,44.0,96,89,72,30.05,29.85,13,2,21,0.88
2013-3-24,67.0,56.1,49.0,66.0,54.8,47.0,98,95,91,29.86,29.44,17,7,50,1.57
2013-3-25,55.7,50.6,45.5,49.0,35.8,25.0,95,60,35,29.97,29.59,27,13,33,1.58
2013-3-26,50.0,44.2,38.1,35.0,29.3,26.0,70,57,44,30.19,29.97,20,11,26,0.00
2013-3-27,57.2,47.3,36.9,43.0,33.3,28.0,87,61,37,30.29,30.17,14,6,18,0.00
2013-3-28,60.3,49.6,39.1,47.0,35.5,28.0,92,63,31,30.30,30.17,13,3,19,0.00
2013-3-29,57.1,51.6,40.8,51.0,43.2,37.0,95,74,49,30.34,30.21,13,4,18,0.00
2013-3-30,65.4,59.4,54.3,56.0,52.3,48.0,91,78,53,30.24,30.08,16,6,21,0.00
2013-3-31,64.9,61.1,56.9,59.0,56.5,53.0,91,85,77,30.09,29.89,17,9,24,0.02
2013-4-1,75.7,63.2,59.1,64.0,59.6,57.0,94,88,60,29.95,29.83,14,6,19,0.02
2013-4-2,62.0,58.2,52.3,58.0,50.3,45.0,94,76,56,30.13,29.93,12,3,18,0.02
2013-4-3,68.9,58.0,53.6,58.0,52.1,47.0,97,81,65,30.20,30.05,13,2,17,0.00
2013-4-4,63.0,56.7,51.0,62.0,53.8,46.0,97,90,69,30.21,29.82,12,4,18,0.48
2013-4-5,60.0,51.4,45.0,52.0,48.2,44.0,97,89,72,30.02,29.86,16,6,23,0.03
2013-4-6,68.2,57.2,47.4,55.0,49.4,37.0,95,78,33,30.21,30.02,12,4,20,0.03
2013-4-7,69.1,63.4,55.8,62.0,58.7,53.0,94,85,62,30.24,30.12,10,3,17,0.00
2013-4-8,71.0,65.3,56.5,64.0,60.8,55.0,97,85,74,30.19,30.10,9,3,13,0.00
2013-4-9,71.6,67.4,61.7,67.0,64.5,61.0,97,90,82,30.22,30.11,12,4,13,0.00
2013-4-10,72.9,68.2,63.8,67.0,64.5,62.0,97,88,74,30.16,30.00,10,5,14,0.00
2013-4-11,70.7,68.1,66.0,69.0,67.0,65.0,98,96,93,30.00,29.82,13,6,17,0.00
2013-4-12,71.2,68.6,66.6,69.0,67.4,66.0,98,96,92,29.84,29.72,17,9,37,0.30
2013-4-13,70.8,65.1,58.2,68.0,55.6,48.0,94,72,50,30.01,29.81,12,4,15,0.00
2013-4-14,71.0,64.7,58.2,64.0,61.2,57.0,97,88,75,30.08,29.91,7,1,15,0.21
2013-4-15,73.3,67.5,62.7,66.0,64.1,61.0,97,89,72,30.13,29.85,9,1,12,0.01
2013-4-16,76.2,68.1,61.5,68.0,64.4,61.0,97,88,70,30.22,30.13,9,2,13,0.01
2013-4-17,75.2,68.7,62.6,69.0,65.5,62.0,98,90,73,30.21,30.11,9,2,12,0.00
2013-4-18,76.2,71.2,66.6,71.0,67.8,65.0,96,89,77,30.12,30.00,9,2,12,0.03
2013-4-19,73.2,71.1,68.9,71.0,69.3,67.0,96,94,88,30.00,29.84,21,11,24,1.16
2013-4-20,66.5,56.7,50.8,65.0,51.6,46.0,96,84,60,30.23,29.92,18,6,23,1.49
2013-4-21,67.3,58.3,48.3,56.0,51.5,46.0,92,79,62,30.30,30.22,11,3,24,0.00
2013-4-22,69.8,59.0,51.0,55.0,49.9,42.0,84,72,56,30.25,30.09,16,5,22,0.00
2013-4-23,62.9,58.1,52.7,57.0,53.6,50.0,90,85,77,30.20,30.12,9,4,16,0.00
2013-4-24,68.9,63.1,53.4,65.0,59.6,52.0,97,88,73,30.18,30.05,12,4,14,0.00
2013-4-25,74.5,69.0,65.9,68.0,65.7,64.0,97,89,74,30.19,30.07,13,4,15,0.59
2013-4-26,72.4,66.0,61.2,65.0,58.7,53.0,97,79,52,30.36,30.19,9,2,16,0.59
2013-4-27,73.3,65.6,58.0,62.0,58.0,55.0,95,78,56,30.32,30.20,8,2,16,0.00
2013-4-28,71.6,68.4,63.9,67.0,64.7,59.0,92,87,79,30.20,30.01,13,4,19,0.00
2013-4-29,74.5,69.3,65.3,69.0,66.6,64.0,96,91,79,30.03,29.94,14,4,16,0.38
2013-4-30,72.4,67.9,64.1,67.0,65.0,62.0,98,90,78,30.06,29.93,9,2,16,0.38
2013-5-1,72.3,65.8,61.2,64.0,61.9,60.0,95,87,71,30.15,30.04,14,2,15,0.00
2013-5-2,71.7,67.9,64.3,66.0,64.7,61.0,93,89,82,30.13,30.06,13,4,18,0.00
2013-5-3,69.9,64.8,61.8,65.0,61.2,56.0,94,88,79,30.07,29.97,13,4,21,0.00
2013-5-4,66.7,63.3,60.6,63.0,61.0,58.0,96,92,85,29.98,29.85,13,5,18,0.06
2013-5-5,70.8,66.8,63.2,66.0,64.1,61.0,97,91,80,29.86,29.75,15,4,22,0.52
2013-5-6,66.7,64.1,60.4,63.0,57.8,53.0,98,81,62,29.91,29.80,17,5,23,0.53
2013-5-7,66.5,62.3,55.9,62.0,57.4,53.0,93,84,78,29.96,29.89,15,4,20,0.04
2013-5-8,70.7,65.2,56.3,65.0,59.6,54.0,93,82,68,30.05,29.95,17,6,22,0.04
2013-5-9,76.5,70.9,65.2,68.0,65.3,62.0,93,83,65,30.08,30.00,14,7,18,0.00
2013-5-10,74.9,71.3,67.9,69.0,66.5,63.0,91,85,76,30.09,29.99,15,7,17,0.00
2013-5-11,75.2,72.6,70.6,71.0,69.0,67.0,96,88,78,30.00,29.86,21,8,21,0.00
2013-5-12,81.1,74.4,69.4,69.0,63.1,54.0,90,70,41,29.98,29.84,17,7,18,0.00
2013-5-13,72.8,65.4,56.8,55.0,47.3,42.0,76,54,35,30.12,29.97,16,5,23,0.00
2013-5-14,70.1,64.1,52.6,57.0,52.8,47.0,89,68,51,30.24,30.11,12,4,18,0.00
2013-5-15,76.5,70.8,65.5,65.0,61.2,55.0,84,72,51,30.17,30.00,20,8,23,0.00
2013-5-16,81.4,73.2,69.4,69.0,65.7,61.0,92,78,58,30.06,29.99,14,8,18,0.00
2013-5-17,74.9,72.5,69.7,70.0,68.7,67.0,95,88,79,30.11,30.02,15,7,16,0.00
2013-5-18,75.6,73.4,70.1,72.0,70.4,69.0,96,90,84,30.14,30.05,12,5,15,0.00
2013-5-19,77.5,75.0,72.0,73.0,71.9,70.0,94,90,84,30.11,30.03,11,4,14,0.00
2013-5-20,77.2,75.4,71.0,73.0,72.3,67.0,94,90,86,30.09,30.01,18,9,19,0.00
2013-5-21,75.7,74.2,72.3,73.0,71.7,70.0,96,92,86,30.06,29.96,14,6,16,0.46
2013-5-22,78.0,74.7,70.3,73.0,71.1,69.0,97,88,79,30.00,29.90,12,4,15,0.46
2013-5-23,80.2,76.5,74.0,74.0,72.5,70.0,93,87,72,29.93,29.83,17,6,21,0.00
2013-5-24,82.0,75.3,65.5,70.0,60.3,47.0,82,61,40,30.13,29.84,17,8,23,0.00
2013-5-25,72.7,65.5,56.6,59.0,51.0,42.0,76,61,33,30.28,30.13,16,4,18,0.00
2013-5-26,76.0,70.6,61.3,64.0,61.6,58.0,95,74,58,30.24,30.13,17,6,18,0.00
2013-5-27,76.2,72.3,65.3,69.0,65.6,64.0,96,80,69,30.23,30.14,12,4,15,0.00
2013-5-28,78.2,74.7,68.2,70.0,67.8,66.0,96,79,69,30.23,30.15,13,5,16,0.00
2013-5-29,79.1,75.8,73.5,70.0,68.3,67.0,84,77,71,30.23,30.13,10,5,14,0.00
2013-5-30,79.7,76.6,73.6,74.0,71.9,69.0,92,85,78,30.23,30.14,9,3,14,0.00
2013-5-31,79.7,77.3,74.6,74.0,73.3,72.0,93,87,81,30.20,30.11,12,5,15,0.00
2013-6-1,79.6,77.4,74.0,73.0,72.2,71.0,89,84,78,30.12,30.04,11,6,14,0.00
2013-6-2,79.1,77.8,76.4,75.0,73.8,72.0,91,87,84,30.07,29.91,15,9,18,0.00
2013-6-3,80.0,76.5,73.1,77.0,69.8,-99.9,95,88,80,29.93,29.84,17,-13,20,0.13
2013-6-4,82.8,78.8,75.3,78.0,75.8,73.0,96,90,79,30.00,29.88,12,4,16,0.18
2013-6-5,80.8,77.5,73.9,77.0,74.9,73.0,97,92,84,30.00,29.91,10,2,17,1.29
2013-6-6,79.1,76.3,71.8,76.0,73.7,70.0,98,91,84,29.93,29.65,12,4,28,0.63
2013-6-7,84.3,78.3,74.4,76.0,74.1,72.0,95,87,68,29.85,29.48,32,16,45,0.68
2013-6-8,81.4,79.1,77.3,77.0,75.2,73.0,93,88,82,30.07,29.84,16,9,20,0.00
2013-6-9,80.9,79.1,78.0,77.0,75.9,75.0,93,90,85,30.11,30.04,18,8,20,0.00
2013-6-10,81.4,78.8,70.9,78.0,75.8,68.0,94,90,85,30.08,29.95,24,11,31,0.33
2013-6-11,83.6,79.5,74.4,79.0,75.9,73.0,95,89,76,30.03,29.89,15,8,22,0.01
2013-6-12,89.5,82.8,76.9,81.0,77.7,74.0,95,85,61,29.97,29.88,14,6,18,0.01
2013-6-13,89.4,84.4,79.8,81.0,79.8,78.0,95,86,73,29.90,29.71,18,8,22,0.00
2013-6-14,87.2,80.7,74.8,80.0,68.7,60.0,88,68,42,29.96,29.70,12,4,18,0.00
2013-6-15,81.0,76.9,71.6,71.0,66.0,59.0,92,70,52,30.10,29.96,9,3,16,0.00
2013-6-16,80.1,78.6,76.3,71.0,66.7,64.0,78,67,59,30.14,30.04,15,8,16,0.00
2013-6-17,81.7,79.4,76.9,77.0,74.2,68.0,91,84,72,30.06,29.95,15,7,17,0.06
2013-6-18,86.5,81.2,71.5,78.0,76.2,70.0,96,85,70,29.98,29.84,17,9,26,0.84
2013-6-19,85.2,76.6,71.6,78.0,70.4,-99.9,96,85,71,30.01,29.87,21,-5,26,0.67
2013-6-20,81.7,76.5,73.2,74.0,72.6,69.0,97,88,75,30.11,29.99,8,2,14,0.20
2013-6-21,82.2,76.9,72.1,75.0,71.9,69.0,94,85,72,30.14,30.07,12,2,15,0.00
2013-6-22,80.5,79.1,78.2,76.0,74.4,73.0,90,85,80,30.14,30.08,9,5,13,0.00
2013-6-23,83.2,79.9,75.5,77.0,76.0,74.0,96,88,81,30.16,30.09,12,4,15,0.00
2013-6-24,82.1,80.7,79.4,78.0,76.4,74.0,90,86,79,30.20,30.11,14,8,15,0.00
2013-6-25,82.9,81.0,79.2,78.0,75.8,72.0,89,84,76,30.14,30.03,16,8,18,0.00
2013-6-26,85.1,80.8,75.4,78.0,75.8,74.0,95,85,73,30.07,29.94,20,8,21,0.03
2013-6-27,86.5,82.2,79.4,80.0,77.7,74.0,92,86,73,29.97,29.79,19,9,25,0.10
2013-6-28,86.5,82.7,78.8,81.0,76.7,73.0,90,82,71,29.82,29.65,21,9,27,0.00
2013-6-29,84.4,80.0,74.9,78.0,74.8,72.0,91,84,77,29.75,29.68,19,9,26,0.07
2013-6-30,83.1,80.7,75.1,78.0,76.3,72.0,93,86,76,29.83,29.71,23,11,26,0.16
2013-7-1,82.8,79.7,73.7,78.0,75.8,71.0,94,88,82,29.99,29.80,24,14,29,0.14
2013-7-2,81.0,79.6,76.1,77.0,75.1,73.0,93,86,78,30.12,29.97,25,12,27,0.15
2013-7-3,82.2,80.2,75.6,78.0,76.5,74.0,93,88,82,30.18,30.09,14,8,25,0.01
2013-7-4,84.2,82.0,80.4,79.0,77.3,76.0,89,85,81,30.20,30.14,16,9,21,0.01
2013-7-5,84.5,82.0,78.9,79.0,77.1,76.0,90,85,80,30.20,30.13,17,8,25,0.11
2013-7-6,84.9,81.7,79.0,78.0,76.1,74.0,88,83,76,30.18,30.10,16,7,19,0.11
2013-7-7,82.9,81.5,80.3,76.0,75.1,74.0,85,81,75,30.16,30.08,13,9,17,0.00
2013-7-8,82.7,80.1,74.9,76.0,74.2,73.0,94,82,76,30.17,30.09,12,5,14,0.00
2013-7-9,83.1,81.3,77.7,77.0,75.5,73.0,91,82,77,30.17,30.07,14,7,15,0.00
2013-7-10,83.1,81.5,79.6,76.0,74.9,73.0,84,80,76,30.11,29.95,12,7,15,0.00
2013-7-11,83.4,81.7,80.2,78.0,75.9,74.0,85,82,74,29.98,29.86,19,11,23,0.00
2013-7-12,81.9,77.6,75.1,77.0,74.7,73.0,95,90,82,29.93,29.85,13,2,20,0.21
2013-7-13,84.1,78.7,74.9,79.0,75.5,73.0,97,90,79,30.03,29.90,12,3,19,0.01
2013-7-14,84.9,80.3,73.4,79.0,75.6,72.0,95,85,76,30.17,30.03,28,6,35,0.30
2013-7-15,85.5,81.7,78.6,79.0,77.2,75.0,92,86,79,30.21,30.14,14,3,18,0.00
2013-7-16,85.2,81.3,76.8,78.0,76.6,75.0,95,86,77,30.23,30.17,13,2,14,0.00
2013-7-17,87.4,80.6,74.4,79.0,76.4,73.0,96,87,70,30.19,30.07,14,4,16,0.05
2013-7-18,82.6,78.8,72.8,77.0,74.7,72.0,97,87,78,30.13,30.05,12,5,14,0.06
2013-7-19,82.8,81.6,80.6,77.0,75.7,74.0,86,82,77,30.10,30.00,16,10,23,0.00
2013-7-20,83.0,80.7,77.4,78.0,75.3,73.0,91,83,75,30.07,29.97,20,10,23,0.11
2013-7-21,82.8,79.4,76.0,77.0,75.0,73.0,91,86,80,30.03,29.93,15,7,23,0.01
2013-7-22,88.0,80.2,76.7,77.0,75.0,74.0,93,84,65,30.00,29.90,17,8,28,0.01
2013-7-23,88.9,81.6,77.1,77.0,74.7,73.0,89,80,62,29.93,29.78,14,7,17,0.00
2013-7-24,83.9,79.9,75.7,77.0,75.0,72.0,91,85,76,29.80,29.73,12,4,16,0.00
2013-7-25,83.9,78.6,74.2,78.0,75.2,69.0,94,89,70,29.94,29.75,10,3,13,0.27
2013-7-26,84.7,79.9,75.0,79.0,76.0,73.0,96,88,80,30.03,29.93,11,3,15,0.28
2013-7-27,83.9,81.7,79.7,78.0,77.1,76.0,91,86,82,30.00,29.87,12,6,15,0.00
2013-7-28,83.8,81.7,78.9,79.0,76.8,74.0,93,85,75,29.99,29.89,13,6,15,0.01
2013-7-29,84.4,81.9,78.0,79.0,77.4,75.0,93,86,79,30.12,29.97,15,5,18,0.01
2013-7-30,84.5,81.2,77.0,79.0,77.0,73.0,94,87,80,30.14,30.07,11,3,16,0.08
2013-7-31,84.1,80.3,76.2,79.0,76.9,74.0,95,89,78,30.09,29.99,13,4,17,0.31
2013-8-1,82.6,79.4,75.6,77.0,75.2,72.0,94,87,74,29.99,29.89,15,6,25,0.37
2013-8-2,83.9,81.3,76.9,78.0,76.5,74.0,92,85,79,30.02,29.91,16,8,20,0.00
2013-8-3,84.5,82.8,80.7,80.0,77.5,76.0,90,84,78,30.01,29.91,10,6,15,0.00
2013-8-4,90.1,83.1,75.6,80.0,77.2,73.0,95,83,64,29.96,29.86,14,4,17,0.30
2013-8-5,85.2,81.1,77.4,77.0,72.2,67.0,92,75,58,30.02,29.92,12,4,16,0.01
2013-8-6,84.3,81.5,79.8,74.0,72.0,70.0,77,73,68,30.02,29.92,10,5,14,0.01
2013-8-7,84.3,81.4,77.8,76.0,72.7,70.0,82,75,68,30.04,29.96,11,3,13,0.00
2013-8-8,83.5,80.5,75.7,79.0,76.2,74.0,96,87,78,30.04,29.96,12,4,15,0.00
2013-8-9,84.5,83.1,81.4,79.0,77.3,76.0,89,83,75,30.09,29.98,15,9,17,0.00
2013-8-10,85.3,83.3,79.9,79.0,77.6,76.0,91,83,76,30.11,30.04,15,7,21,0.00
2013-8-11,87.0,84.0,80.2,81.0,79.0,77.0,93,85,74,30.12,30.03,15,8,18,0.00
2013-8-12,90.5,84.6,80.2,81.0,78.6,75.0,89,82,63,30.07,29.94,13,6,17,0.00
2013-8-13,89.0,84.6,80.8,82.0,79.6,77.0,89,85,75,29.96,29.82,20,8,24,0.00
2013-8-14,84.7,77.5,74.1,80.0,72.3,-99.9,97,88,79,29.99,29.83,11,-18,17,0.44
2013-8-15,75.4,70.9,66.3,75.0,69.8,66.0,98,96,94,30.05,29.92,11,2,14,0.18
2013-8-16,81.8,74.1,68.8,78.0,72.2,68.0,98,94,84,30.04,29.96,7,1,11,0.08
2013-8-17,79.7,74.7,72.3,75.0,73.1,72.0,98,95,84,30.12,29.98,9,2,13,0.03
2013-8-18,83.9,78.9,73.6,79.0,75.1,72.0,97,88,77,30.15,30.07,13,3,22,0.02
2013-8-19,84.0,80.0,76.6,79.0,76.9,74.0,97,90,81,30.10,30.00,9,2,15,0.01
2013-8-20,85.0,80.3,75.5,80.0,77.2,74.0,97,90,79,30.12,30.02,8,2,14,0.02
2013-8-21,85.5,81.7,77.4,80.0,77.7,76.0,97,87,79,30.18,30.08,11,2,14,0.01
2013-8-22,84.3,80.8,74.4,78.0,76.2,73.0,96,86,71,30.12,30.00,10,3,14,0.01
2013-8-23,87.5,81.5,75.4,78.0,75.6,74.0,95,83,66,30.02,29.94,14,4,16,0.02
2013-8-24,84.3,78.8,75.7,77.0,74.0,71.0,93,85,69,30.16,29.98,10,2,13,0.00
2013-8-25,82.2,76.1,69.7,72.0,69.5,67.0,94,81,62,30.25,30.16,11,2,16,0.01
2013-8-26,82.4,76.2,70.5,73.0,70.4,67.0,92,82,72,30.22,30.09,8,2,14,0.00
2013-8-27,81.3,76.3,69.7,73.0,69.6,67.0,96,81,63,30.11,29.99,12,3,13,0.00
2013-8-28,84.8,79.4,73.8,75.0,72.5,70.0,92,80,62,30.01,29.93,14,5,18,0.00
2013-8-29,85.8,81.8,76.4,80.0,75.9,72.0,89,82,72,29.95,29.83,15,6,18,0.00
2013-8-30,85.0,80.2,76.7,78.0,76.5,74.0,95,88,79,29.96,29.86,12,2,19,0.00
2013-8-31,83.0,79.1,73.8,78.0,76.0,73.0,99,91,78,29.95,29.86,11,4,15,0.01
2013-9-1,84.3,81.8,80.6,78.0,77.3,76.0,90,86,77,29.93,29.87,14,6,16,0.00
2013-9-9,84.4,78.8,80.3,73.0,66.5,-99.9,78,71,67,30.08,0.00,7,-30,12,0.00
2013-9-10,85.7,80.2,73.5,76.0,73.5,71.0,94,80,66,30.17,30.07,8,2,17,0.00
2013-9-11,86.4,79.4,73.9,77.0,73.7,71.0,96,83,61,30.14,30.05,7,1,14,0.00
2013-9-12,86.1,79.0,72.6,75.0,72.8,71.0,96,82,60,30.05,29.86,11,3,13,0.00
2013-9-13,86.0,80.1,76.4,78.0,75.1,73.0,95,85,69,29.86,29.70,13,4,18,0.36
2013-9-14,85.6,76.9,69.1,77.0,71.8,65.0,96,84,74,30.01,29.75,9,2,15,0.00
2013-9-15,85.4,80.1,72.6,77.0,74.7,71.0,94,84,71,30.11,30.01,12,3,17,0.00
2013-9-16,87.0,80.5,75.5,78.0,76.1,74.0,95,86,71,30.09,29.98,8,2,12,0.00
2013-9-17,80.9,75.4,70.8,74.0,70.0,66.0,96,84,66,30.16,30.03,10,2,19,0.00
2013-9-18,79.3,72.0,66.2,66.0,62.5,57.0,91,73,50,30.18,30.09,15,2,18,0.00
2013-9-19,81.1,73.4,66.4,72.0,67.0,61.0,87,80,68,30.12,30.05,10,2,14,0.00
2013-9-20,81.2,75.1,68.9,71.0,69.0,67.0,96,82,66,30.06,29.92,10,2,13,0.00
2013-9-21,81.2,78.3,73.0,75.0,72.5,71.0,94,82,73,29.93,29.71,17,7,21,0.00
2013-9-22,79.7,74.3,70.2,75.0,70.9,68.0,96,89,78,29.83,29.68,16,4,23,0.14
2013-9-23,78.9,72.8,65.7,69.0,64.3,61.0,95,76,55,30.00,29.83,8,1,14,0.00
2013-9-24,78.7,73.3,68.9,69.0,66.0,63.0,86,78,66,30.00,29.86,10,2,14,0.00
2013-9-25,78.7,74.5,70.5,70.0,68.8,67.0,89,82,75,29.87,29.75,8,2,13,0.00
2013-9-26,74.2,69.2,65.9,69.0,66.9,64.0,97,92,82,29.92,29.76,12,4,16,0.05
2013-9-27,78.4,69.9,62.2,67.0,64.0,60.0,93,82,67,30.07,29.91,8,2,15,0.01
2013-9-28,76.2,68.2,59.6,65.0,62.0,57.0,92,81,67,30.12,30.04,9,3,16,0.00
2013-9-29,77.0,68.2,61.3,63.0,61.0,59.0,95,79,54,30.07,29.98,9,3,14,0.00
2013-9-30,75.8,67.1,59.6,65.0,60.2,57.0,93,80,55,30.05,29.97,9,1,13,0.00
2013-10-1,79.7,69.2,60.9,65.0,61.6,58.0,93,78,52,30.12,30.02,8,2,11,0.00
2013-10-2,81.8,71.1,62.5,68.0,65.0,61.0,96,82,56,30.13,30.04,9,2,13,0.00
2013-10-3,81.2,72.9,65.6,73.0,69.1,64.0,97,88,73,30.11,30.04,12,2,17,0.00
2013-10-4,82.0,74.5,69.0,74.0,71.3,68.0,98,90,68,30.11,30.03,10,2,12,0.00
2013-10-5,82.4,74.6,68.2,74.0,71.2,67.0,98,89,71,30.09,30.00,10,2,13,0.00
2013-10-6,81.8,76.2,70.5,77.0,73.9,70.0,99,92,83,30.02,29.89,10,2,15,0.01
2013-10-7,80.7,77.6,75.2,76.0,74.9,72.0,96,91,77,29.89,29.77,12,4,20,0.01
2013-10-8,76.6,68.1,61.6,75.0,66.1,59.0,97,93,88,30.02,29.80,17,6,24,0.00
2013-10-9,75.2,65.9,58.8,66.0,61.1,57.0,94,85,72,30.08,29.98,15,8,22,0.03
2013-10-10,76.1,66.4,58.3,63.0,59.6,56.0,92,80,58,30.04,29.92,14,6,23,0.00
2013-10-11,79.4,71.2,64.7,69.0,64.6,61.0,95,81,54,30.00,29.89,10,3,12,0.00
2013-10-12,79.1,72.4,65.2,71.0,68.0,63.0,95,86,64,30.02,29.90,8,2,11,0.00
2013-10-13,76.6,71.6,68.2,70.0,68.0,67.0,95,88,75,30.10,30.00,14,4,17,0.00
2013-10-14,75.3,70.6,68.1,70.0,67.3,65.0,94,89,82,30.08,30.00,15,6,19,0.00
2013-10-15,74.8,67.5,64.1,65.0,63.1,61.0,93,86,66,30.07,29.97,17,3,19,0.00
2013-10-16,77.0,69.5,64.3,68.0,65.3,63.0,97,87,71,30.01,29.92,7,1,9,0.00
2013-10-17,75.3,71.1,64.6,72.0,68.2,63.0,98,90,83,29.98,29.87,12,4,16,0.00
2013-10-18,77.5,75.3,73.2,74.0,73.0,72.0,97,92,85,29.96,29.87,11,3,13,0.00
2013-10-19,80.7,74.6,68.5,74.0,71.6,64.0,97,90,76,29.92,29.84,12,3,19,0.18
2013-10-20,73.3,67.1,62.8,64.0,61.6,57.0,89,82,71,30.03,29.88,10,3,16,0.00
2013-10-21,71.3,66.5,62.9,66.0,62.4,59.0,90,87,83,30.08,29.98,6,1,10,0.00
2013-10-22,68.8,65.6,63.7,64.0,62.3,61.0,94,89,77,30.00,29.83,5,0,9,0.02
2013-10-23,71.5,64.5,59.8,63.0,49.0,43.0,95,60,39,30.00,29.78,22,6,23,0.01
2013-10-24,62.2,55.3,45.6,52.0,44.8,38.0,91,69,46,30.18,30.00,12,3,16,0.00
2013-10-25,62.2,55.8,49.6,55.0,47.0,41.0,94,74,48,30.33,30.14,13,4,17,0.00
2013-10-26,63.5,53.3,42.8,51.0,44.4,38.0,90,73,54,30.32,30.13,9,2,11,0.00
2013-10-27,68.5,58.7,48.9,58.0,51.8,45.0,97,79,51,30.15,30.06,9,2,13,0.00
2013-10-28,72.8,64.6,58.4,63.0,59.6,56.0,94,84,64,30.23,30.11,7,1,9,0.00
2013-10-29,74.0,64.1,56.5,63.0,59.4,56.0,97,86,59,30.31,30.21,9,1,11,0.00
2013-10-30,75.3,64.9,58.0,66.0,61.4,57.0,98,89,64,30.31,30.16,9,1,12,0.00
2013-10-31,76.1,68.6,59.4,70.0,65.1,58.0,98,89,75,30.19,29.96,19,3,23,0.00
2013-11-1,75.6,73.4,71.9,72.0,71.1,70.0,96,92,84,29.96,29.74,15,8,20,0.03
2013-11-2,71.7,66.3,59.6,70.0,61.6,53.0,97,85,53,29.94,29.73,11,4,16,0.93
2013-11-3,67.1,58.0,51.1,55.0,47.8,41.0,87,71,41,30.27,29.93,11,3,15,0.00
2013-11-4,66.5,57.5,50.8,51.0,47.8,43.0,86,71,43,30.39,30.26,11,2,16,0.00
2013-11-5,65.4,56.0,46.4,60.0,52.4,43.0,95,88,74,30.40,30.28,17,5,21,0.00
2013-11-6,75.2,65.6,58.3,68.0,62.8,57.0,97,91,78,30.28,30.06,5,1,11,0.00
2013-11-7,71.5,66.8,63.7,67.0,64.7,62.0,98,93,85,30.06,29.93,8,2,16,0.00
2013-11-8,64.2,54.3,46.5,62.0,41.9,35.0,92,65,41,30.29,30.01,16,4,19,0.00
2013-11-9,65.0,56.2,46.7,55.0,49.1,42.0,91,78,62,30.33,30.22,6,1,10,0.00
2013-11-10,68.5,60.2,53.8,58.0,54.0,52.0,93,81,58,30.25,30.12,7,1,10,0.00
2013-11-11,68.3,58.1,50.5,56.0,51.3,43.0,93,79,64,30.26,30.13,7,1,14,0.00
2013-11-12,70.1,58.9,44.5,56.0,49.6,34.0,93,73,46,30.29,29.98,26,4,42,0.00
2013-11-13,50.0,42.4,36.3,35.0,29.8,22.0,83,63,35,30.50,30.29,23,6,30,0.00
2013-11-14,62.2,48.7,35.2,50.0,41.0,30.0,93,76,59,30.48,30.30,8,2,13,0.00
2013-11-15,65.2,59.1,50.7,61.0,56.9,49.0,96,92,86,30.30,30.12,5,1,8,0.01
2013-11-16,73.0,64.0,59.5,66.0,61.4,59.0,98,91,75,30.20,30.12,11,1,11,0.01
2013-11-17,74.0,65.4,59.6,71.0,64.5,59.0,99,96,90,30.16,29.98,9,2,11,0.00
2013-11-18,78.5,69.1,63.9,72.0,66.6,51.0,99,92,61,29.97,29.82,13,6,17,0.00
2013-11-19,63.2,56.8,50.3,51.0,42.8,37.0,77,61,46,30.16,29.89,10,2,19,0.00
2013-11-20,59.7,53.9,47.7,53.0,47.5,41.0,83,79,76,30.28,30.15,10,3,16,0.00
2013-11-21,71.0,60.4,53.7,63.0,56.6,50.0,95,87,75,30.33,30.26,8,2,16,0.00
2013-11-22,72.0,65.1,59.8,68.0,63.4,59.0,98,94,82,30.31,30.14,8,2,10,0.04
2013-11-23,71.8,65.9,60.0,67.0,63.4,55.0,98,91,81,30.13,29.98,11,4,15,0.00
2013-11-24,60.0,45.8,36.6,55.0,30.5,23.0,85,57,37,30.50,30.08,25,6,31,0.00
2013-11-25,49.6,43.5,34.8,48.0,34.2,20.0,94,71,52,30.49,30.22,11,3,16,0.00
2013-11-26,67.4,60.7,49.7,67.0,59.7,48.0,99,96,91,30.21,29.60,25,6,33,1.18
2013-11-27,66.2,53.2,40.6,65.0,50.9,37.0,99,92,84,30.21,29.51,24,10,29,0.08
2013-11-28,47.6,38.9,32.2,36.0,30.9,25.0,90,74,46,30.49,30.21,10,3,14,0.00
2013-11-29,58.5,45.8,36.0,45.0,38.7,34.0,92,78,54,30.50,30.41,8,2,13,0.00
2013-11-30,59.7,48.6,40.1,47.0,41.7,36.0,85,78,61,30.48,30.30,13,4,18,0.00
2013-12-1,60.5,54.6,49.1,56.0,50.8,45.0,93,87,80,30.29,29.99,7,1,10,0.00
2013-12-2,62.3,54.6,49.0,53.0,51.0,46.0,97,88,56,29.98,29.79,10,2,12,0.00
2013-12-3,60.7,55.6,47.4,58.0,53.0,46.0,97,91,83,29.97,29.88,6,1,9,0.00
2013-12-4,71.6,61.9,57.2,65.0,59.8,56.0,98,93,80,30.10,29.96,10,3,13,0.00
2013-12-5,68.6,63.8,57.4,68.0,63.1,57.0,99,97,93,30.16,30.07,9,3,11,0.00
2013-12-6,71.5,65.5,60.9,69.0,64.4,60.0,99,96,91,30.14,30.07,12,6,17,0.00
2013-12-7,69.9,62.6,51.6,68.0,61.5,51.0,99,96,91,30.31,30.09,13,5,15,0.00
2013-12-8,51.4,49.1,47.7,50.0,48.5,47.0,99,98,96,30.32,30.20,10,2,13,0.13
2013-12-9,65.8,56.6,48.2,65.0,56.3,47.0,100,98,96,30.24,30.04,7,2,16,0.00
2013-12-10,68.6,61.8,50.3,66.0,59.4,48.0,100,92,74,30.29,29.96,18,7,27,0.04
2013-12-11,54.9,49.6,42.4,47.0,43.2,38.0,91,79,62,30.39,30.27,6,1,13,0.00
2013-12-12,55.6,47.2,39.5,44.0,37.7,30.0,90,72,40,30.40,30.25,10,2,16,0.00
2013-12-13,58.0,48.0,38.2,46.0,39.2,33.0,86,73,53,30.39,30.23,6,1,10,0.00
2013-12-14,66.2,60.2,48.8,65.0,58.2,45.0,98,93,85,30.22,29.80,19,5,27,0.44
2013-12-15,64.4,57.1,47.1,64.0,53.5,43.0,98,88,75,30.14,29.78,15,7,21,0.05
2013-12-16,59.6,48.7,38.9,49.0,42.5,37.0,93,81,49,30.22,30.13,9,3,11,0.00
2013-12-17,65.3,53.7,44.3,52.0,44.0,38.0,92,72,38,30.23,30.07,12,6,19,0.00
2013-12-18,57.5,50.4,40.3,42.0,39.3,32.0,93,68,38,30.32,30.10,12,4,14,0.00
2013-12-19,64.5,50.8,37.6,52.0,45.5,36.0,98,83,60,30.34,30.23,5,0,8,0.00
2013-12-20,70.9,59.6,50.5,62.0,56.4,50.0,99,89,68,30.24,30.14,6,2,9,0.00
2013-12-21,71.9,65.3,55.8,69.0,63.5,55.0,99,94,87,30.16,30.06,12,4,16,0.00
2013-12-22,72.0,65.6,62.3,70.0,64.9,62.0,99,97,92,30.12,30.06,14,5,16,0.00
2013-12-23,69.1,64.4,58.9,68.0,64.0,58.0,100,98,95,30.12,30.03,13,7,24,0.23
2013-12-24,58.8,53.5,45.1,58.0,47.4,36.0,97,81,51,30.36,30.07,15,6,22,0.03
2013-12-25,52.8,44.0,35.5,41.0,35.8,29.0,83,73,62,30.43,30.31,10,3,17,0.00
2013-12-26,51.8,46.8,43.3,47.0,42.5,36.0,91,85,75,30.31,30.21,13,6,16,0.00
2013-12-27,58.9,50.0,43.7,43.0,39.2,36.0,87,68,44,30.38,30.30,6,1,11,0.00
2013-12-28,62.0,52.0,40.8,56.0,46.9,37.0,97,83,70,30.38,30.02,6,1,12,0.01
2013-12-29,72.1,62.7,53.9,68.0,60.0,51.0,99,91,67,30.02,29.79,24,8,32,0.44
2013-12-30,60.1,53.3,47.4,50.0,47.9,46.0,94,82,63,30.17,29.98,14,5,14,0.00
2013-12-31,55.3,52.6,47.9,50.0,47.5,45.0,92,83,69,30.37,30.15,17,4,19,0.00
2014-1-1,56.2,50.3,47.6,52.0,47.9,45.0,98,92,85,30.36,30.13,9,1,9,0.39
2014-1-2,58.8,53.3,49.5,59.0,52.4,43.0,99,97,76,30.12,29.65,24,4,30,0.75